메인 페이지
METAR-TAF:

METAR-TAF

공항 :

코토누, 베냉

위도: 06-21N, 경도: 002-23E, 고도: 5m

현재 날씨관측

예보는 53분 전, 23:00시(UTC)에 발표되었습니다.
여러 방향의 바람 2kt
온도 25°C
습도 89%
기압 1014 hPa
시정: 8000m
고도 900ft 상공 구름 조금

METAR: DBBB 012300Z VRB02KT 8000 FEW009 25/23 Q1014 NOSIG

시각: 00:53 (23:53 UTC)

예보

예보는 53분 전, 23:00시(UTC)에 발표되었습니다.
예보 대상 시간: 02일 00시부터 03일 06시까지 (UTC)
남서10kt
시정 10km 이상
고도 1200ft 상공 구름 보통
일시적
02일 05시부터 02일 11시까지 (UTC)
시정: 3000m
고도 1000ft 상공 구름 많음
고도 2300ft 상공 구름 조금, 적란운.
뇌우, 비
확률 30%
02일 05시부터 02일 07시까지 (UTC)
15kt, 순간 최대 풍속 35kt

TAF: DBBB 012300Z 0200/0306 22010KT 9999 SCT012 TEMPO 0205/0211 3000 TSRA BKN010 FEW023CB PROB30 0205/0207 09015G35KT

4,000개 이상의 공항 관측 자료 및 예보 (METAR 및 TAF 보고).

지도상에서 검색 가능한 기상관측소가 노란 점과 빨간 점으로 표시되어 있습니다.

기상관측소 명을 보려면 표시 위로 마우스를 이동하세요.

날씨 관측과 예보를 보려면 클릭하세요.

지도 변경 : 확대하려면 엑스 표시가 있는 녹색 버튼, 축소하려면 빼기 표시가 있는 녹색 버튼, 다음 페이지의 지도를 보려면 녹색 화살표를 클릭하세요.


METAR-TAF: